Station Historical Data
Daily Summary for April 28, 2012 Units:  Metric    English   Both
« Previous Day
Next Day »
Daily Weekly Monthly Yearly Custom
  High: Low: Average:
Temperature: 27.6 °C 16.1 °C 21.5 °C
Dew Point: 18.5 °C 14.8 °C 16.4 °C
Humidity: 94% 46% 75%
Wind Speed: 20.9km/h 0km/h 7.7km/h
Wind Gust: 24.1km/h - -
Wind- - South
Pressure: 1016.5 hPa 1013.1 hPa -
Precipitation: 0 mm    
Historical Graphs
 
 
Tabular Data for April 28, 2012
Time Temperature Dew Point Pressure Wind Wind Speed Wind Gust Humidity Rainfall Rate (Hourly) Conditions
00:00 18.6 °C 17.3 °C 1014.1 hPa ESE 6.4 km/h 6.4 km/h 92% 0 mm
00:05 18.5 °C 17.3 °C 1013.8 hPa ESE 8 km/h 8 km/h 93% 0 mm
00:10 18.5 °C 17.3 °C 1013.8 hPa ESE 6.4 km/h 9.7 km/h 93% 0 mm
00:15 18.4 °C 17.2 °C 1014.1 hPa ESE 4.8 km/h 8 km/h 93% 0 mm
00:20 18.3 °C 17.2 °C 1013.8 hPa ESE 6.4 km/h 9.7 km/h 93% 0 mm
00:25 18.4 °C 17.2 °C 1013.8 hPa SE 8 km/h 8 km/h 93% 0 mm
00:30 18.5 °C 17.3 °C 1013.8 hPa SE 8 km/h 8 km/h 93% 0 mm
00:35 18.7 °C 17.5 °C 1013.8 hPa SE 6.4 km/h 11.3 km/h 93% 0 mm
00:40 18.7 °C 17.6 °C 1013.8 hPa SE 9.7 km/h 9.7 km/h 93% 0 mm
00:45 18.8 °C 17.7 °C 1013.8 hPa SE 12.9 km/h 12.9 km/h 93% 0 mm
00:46 18.8 °C 17.7 °C 1013.8 hPa SE 8 km/h 12.9 km/h 93% 0 mm
00:51 18.9 °C 17.6 °C 1013.8 hPa SE 4.8 km/h 9.7 km/h 92% 0 mm
00:56 18.9 °C 17.6 °C 1013.8 hPa SE 9.7 km/h 9.7 km/h 92% 0 mm
01:01 18.9 °C 17.6 °C 1013.8 hPa SE 8 km/h 11.3 km/h 92% 0 mm
01:06 18.9 °C 17.4 °C 1013.8 hPa ESE 9.7 km/h 12.9 km/h 91% 0 mm
01:11 18.9 °C 17.4 °C 1013.8 hPa ESE 6.4 km/h 11.3 km/h 91% 0 mm
01:16 18.9 °C 17.4 °C 1013.8 hPa SE 9.7 km/h 11.3 km/h 91% 0 mm
01:21 18.9 °C 17.4 °C 1013.8 hPa ESE 4.8 km/h 9.7 km/h 91% 0 mm
01:26 18.9 °C 17.2 °C 1013.8 hPa SE 8 km/h 14.5 km/h 90% 0 mm
01:31 18.8 °C 17.3 °C 1013.4 hPa SE 4.8 km/h 11.3 km/h 91% 0 mm
01:36 18.7 °C 17.2 °C 1013.8 hPa SE 9.7 km/h 9.7 km/h 91% 0 mm
01:41 18.7 °C 17.1 °C 1013.8 hPa ESE 3.2 km/h 8 km/h 90% 0 mm
01:46 18.7 °C 17.2 °C 1013.8 hPa SE 8 km/h 8 km/h 91% 0 mm
01:51 18.6 °C 16.9 °C 1013.8 hPa SE 8 km/h 8 km/h 90% 0 mm
01:56 18.6 °C 17.1 °C 1013.8 hPa SE 4.8 km/h 6.4 km/h 91% 0 mm
02:01 18.6 °C 16.9 °C 1013.8 hPa ESE 8 km/h 8 km/h 90% 0 mm
02:06 18.5 °C 16.8 °C 1013.4 hPa ESE 8 km/h 9.7 km/h 90% 0 mm
02:11 18.4 °C 16.8 °C 1013.8 hPa SE 9.7 km/h 9.7 km/h 90% 0 mm
02:16 18.4 °C 16.8 °C 1013.8 hPa SE 9.7 km/h 12.9 km/h 90% 0 mm
02:21 18.4 °C 16.8 °C 1013.8 hPa SE 6.4 km/h 11.3 km/h 90% 0 mm
02:26 18.4 °C 16.8 °C 1013.8 hPa SE 12.9 km/h 12.9 km/h 90% 0 mm
02:31 18.4 °C 16.8 °C 1013.4 hPa SE 8 km/h 11.3 km/h 90% 0 mm
02:36 18.3 °C 16.7 °C 1013.4 hPa SE 8 km/h 9.7 km/h 90% 0 mm
02:41 18.3 °C 16.7 °C 1013.4 hPa SE 6.4 km/h 11.3 km/h 90% 0 mm
02:46 18.3 °C 16.6 °C 1013.4 hPa SE 11.3 km/h 14.5 km/h 90% 0 mm
02:51 18.3 °C 16.6 °C 1013.4 hPa SE 9.7 km/h 12.9 km/h 90% 0 mm
02:56 18.2 °C 16.6 °C 1013.4 hPa ESE 8 km/h 12.9 km/h 90% 0 mm
03:01 18.2 °C 16.5 °C 1013.4 hPa SE 8 km/h 11.3 km/h 90% 0 mm
03:06 18.2 °C 16.7 °C 1013.4 hPa SE 9.7 km/h 12.9 km/h 91% 0 mm
03:12 18.2 °C 16.7 °C 1013.4 hPa SE 11.3 km/h 11.3 km/h 91% 0 mm
03:17 18.2 °C 16.7 °C 1013.4 hPa SE 9.7 km/h 11.3 km/h 91% 0 mm
03:22 18.1 °C 16.6 °C 1013.4 hPa SE 8 km/h 11.3 km/h 91% 0 mm
03:27 18 °C 16.5 °C 1013.4 hPa SE 8 km/h 11.3 km/h 91% 0 mm
03:32 17.9 °C 16.4 °C 1013.4 hPa SE 8 km/h 9.7 km/h 91% 0 mm
03:37 17.8 °C 16.3 °C 1013.4 hPa SSE 6.4 km/h 12.9 km/h 91% 0 mm
03:42 17.7 °C 16.2 °C 1013.4 hPa SE 8 km/h 8 km/h 91% 0 mm
03:47 17.6 °C 16.3 °C 1013.4 hPa SE 4.8 km/h 8 km/h 92% 0 mm
03:52 17.5 °C 16.2 °C 1013.8 hPa SE 4.8 km/h 9.7 km/h 92% 0 mm
03:57 17.4 °C 16.1 °C 1013.8 hPa SSE 6.4 km/h 8 km/h 92% 0 mm
04:02 17.3 °C 16 °C 1013.8 hPa SSE 9.7 km/h 12.9 km/h 92% 0 mm
04:07 17.3 °C 16 °C 1013.8 hPa SSE 6.4 km/h 9.7 km/h 92% 0 mm
04:12 17.3 °C 16 °C 1013.8 hPa SSE 8 km/h 11.3 km/h 92% 0 mm
04:17 17.4 °C 16.1 °C 1013.8 hPa SSW 4.8 km/h 8 km/h 92% 0 mm
04:22 17.4 °C 16.1 °C 1014.1 hPa South 3.2 km/h 8 km/h 92% 0 mm
04:27 17.5 °C 16.2 °C 1014.1 hPa South 6.4 km/h 6.4 km/h 92% 0 mm
04:32 17.6 °C 16.2 °C 1014.1 hPa SE 3.2 km/h 4.8 km/h 92% 0 mm
04:37 17.4 °C 16.1 °C 1014.1 hPa South 3.2 km/h 4.8 km/h 92% 0 mm
04:42 17.4 °C 16.1 °C 1014.1 hPa SE 3.2 km/h 4.8 km/h 92% 0 mm
04:47 17.3 °C 15.9 °C 1014.1 hPa South 3.2 km/h 6.4 km/h 92% 0 mm
04:52 17.3 °C 15.9 °C 1014.1 hPa SSW 6.4 km/h 6.4 km/h 92% 0 mm
04:57 17.3 °C 15.9 °C 1014.1 hPa South 6.4 km/h 8 km/h 92% 0 mm
05:02 17.3 °C 16 °C 1014.1 hPa SSW 3.2 km/h 8 km/h 92% 0 mm
05:07 17.3 °C 16 °C 1014.1 hPa South 3.2 km/h 6.4 km/h 92% 0 mm
05:12 17.2 °C 15.9 °C 1014.4 hPa South 4.8 km/h 4.8 km/h 92% 0 mm
05:17 17.2 °C 15.8 °C 1014.4 hPa South 4.8 km/h 4.8 km/h 92% 0 mm
05:22 17.1 °C 15.7 °C 1014.4 hPa South 3.2 km/h 6.4 km/h 92% 0 mm
05:27 17 °C 15.7 °C 1014.4 hPa SSE 4.8 km/h 9.7 km/h 92% 0 mm
05:32 17 °C 15.7 °C 1014.4 hPa SSE 4.8 km/h 6.4 km/h 92% 0 mm
05:38 16.9 °C 15.6 °C 1014.4 hPa SSE 3.2 km/h 6.4 km/h 92% 0 mm
05:43 16.8 °C 15.7 °C 1014.4 hPa SE 3.2 km/h 6.4 km/h 93% 0 mm
05:48 16.8 °C 15.7 °C 1014.4 hPa SSE 4.8 km/h 6.4 km/h 93% 0 mm
05:53 16.8 °C 15.7 °C 1014.4 hPa SE 1.6 km/h 6.4 km/h 93% 0 mm
05:58 16.8 °C 15.7 °C 1014.4 hPa SSE 3.2 km/h 6.4 km/h 93% 0 mm
06:03 16.7 °C 15.6 °C 1014.4 hPa SSE 4.8 km/h 4.8 km/h 93% 0 mm
06:08 16.6 °C 15.4 °C 1014.4 hPa SSE 4.8 km/h 6.4 km/h 93% 0 mm
06:13 16.5 °C 15.4 °C 1014.4 hPa SSE 4.8 km/h 8 km/h 93% 0 mm
06:18 16.5 °C 15.4 °C 1014.4 hPa SE 4.8 km/h 6.4 km/h 93% 0 mm
06:23 16.4 °C 15.3 °C 1014.8 hPa SSE 4.8 km/h 6.4 km/h 93% 0 mm
06:28 16.3 °C 15.2 °C 1014.4 hPa SSE 4.8 km/h 8 km/h 93% 0 mm
06:33 16.4 °C 15.3 °C 1014.8 hPa SSE 3.2 km/h 4.8 km/h 93% 0 mm
06:38 16.3 °C 15.2 °C 1014.8 hPa SE 4.8 km/h 6.4 km/h 93% 0 mm
06:43 16.2 °C 15.1 °C 1014.8 hPa SSE 4.8 km/h 6.4 km/h 93% 0 mm
06:48 16.2 °C 15.1 °C 1014.8 hPa South 6.4 km/h 6.4 km/h 93% 0 mm
06:53 16.2 °C 15.1 °C 1014.8 hPa SSE 6.4 km/h 6.4 km/h 93% 0 mm
06:58 16.2 °C 15.2 °C 1014.8 hPa SSE 6.4 km/h 8 km/h 94% 0 mm
07:03 16.2 °C 15.2 °C 1014.8 hPa South 4.8 km/h 6.4 km/h 94% 0 mm
07:08 16.1 °C 15.2 °C 1014.8 hPa SSE 4.8 km/h 8 km/h 94% 0 mm
07:13 16.1 °C 15.1 °C 1014.8 hPa SE 4.8 km/h 8 km/h 94% 0 mm
07:18 16.1 °C 15.2 °C 1014.8 hPa SSE 4.8 km/h 8 km/h 94% 0 mm
07:23 16.1 °C 15.2 °C 1015.1 hPa SSE 4.8 km/h 6.4 km/h 94% 0 mm
07:28 16.2 °C 15.2 °C 1015.1 hPa SSE 6.4 km/h 8 km/h 94% 0 mm
07:33 16.3 °C 15.3 °C 1015.1 hPa SSE 6.4 km/h 8 km/h 94% 0 mm
07:38 16.4 °C 15.4 °C 1015.1 hPa SE 3.2 km/h 9.7 km/h 94% 0 mm
07:43 16.6 °C 15.6 °C 1015.1 hPa South 9.7 km/h 9.7 km/h 94% 0 mm
07:48 16.8 °C 15.8 °C 1015.1 hPa SSE 6.4 km/h 9.7 km/h 94% 0 mm
07:54 17 °C 16 °C 1015.1 hPa SSE 4.8 km/h 9.7 km/h 94% 0 mm
07:59 17.2 °C 16.1 °C 1015.5 hPa SW 3.2 km/h 9.7 km/h 93% 0 mm
08:04 17.4 °C 16.2 °C 1015.5 hPa SSE 9.7 km/h 11.3 km/h 93% 0 mm
08:09 17.6 °C 16.4 °C 1015.5 hPa South 8 km/h 12.9 km/h 93% 0 mm
08:14 17.7 °C 16.4 °C 1015.5 hPa SW 6.4 km/h 11.3 km/h 92% 0 mm
08:19 17.8 °C 16.5 °C 1015.5 hPa South 8 km/h 16.1 km/h 92% 0 mm
08:24 18 °C 16.7 °C 1015.5 hPa South 6.4 km/h 11.3 km/h 92% 0 mm
08:29 18.2 °C 16.8 °C 1015.5 hPa SSE 12.9 km/h 12.9 km/h 92% 0 mm
08:34 18.3 °C 16.8 °C 1015.5 hPa South 4.8 km/h 14.5 km/h 91% 0 mm
08:39 18.4 °C 16.9 °C 1015.8 hPa South 9.7 km/h 11.3 km/h 91% 0 mm
08:44 18.6 °C 17.1 °C 1015.8 hPa South 4.8 km/h 9.7 km/h 91% 0 mm
08:49 18.7 °C 17.2 °C 1015.5 hPa SSE 9.7 km/h 11.3 km/h 91% 0 mm
08:54 18.8 °C 17.1 °C 1015.8 hPa SW 6.4 km/h 11.3 km/h 90% 0 mm
08:59 18.9 °C 17.2 °C 1015.8 hPa SW 9.7 km/h 16.1 km/h 90% 0 mm
09:04 18.9 °C 17.2 °C 1015.8 hPa SSE 8 km/h 17.7 km/h 90% 0 mm
09:09 19.1 °C 17.4 °C 1015.8 hPa SSW 9.7 km/h 14.5 km/h 90% 0 mm
09:14 19 °C 17.3 °C 1015.8 hPa South 9.7 km/h 17.7 km/h 90% 0 mm
09:19 19 °C 17.3 °C 1015.8 hPa SSE 14.5 km/h 14.5 km/h 90% 0 mm
09:24 19 °C 17.3 °C 1015.8 hPa WSW 11.3 km/h 17.7 km/h 90% 0 mm
09:29 19 °C 17.3 °C 1015.8 hPa SW 11.3 km/h 14.5 km/h 90% 0 mm
09:34 19.1 °C 17.4 °C 1015.8 hPa SSW 6.4 km/h 12.9 km/h 90% 0 mm
09:39 19.1 °C 17.4 °C 1015.8 hPa WSW 14.5 km/h 16.1 km/h 90% 0 mm
09:44 19.3 °C 17.4 °C 1015.8 hPa WSW 11.3 km/h 16.1 km/h 89% 0 mm
09:49 19.4 °C 17.8 °C 1015.8 hPa SW 14.5 km/h 14.5 km/h 90% 0 mm
09:54 19.5 °C 17.7 °C 1015.8 hPa SSW 6.4 km/h 12.9 km/h 89% 0 mm
09:59 19.4 °C 17.6 °C 1016.1 hPa SW 11.3 km/h 17.7 km/h 89% 0 mm
10:04 19.4 °C 17.6 °C 1016.1 hPa SW 12.9 km/h 12.9 km/h 89% 0 mm
10:09 19.3 °C 17.5 °C 1016.1 hPa SW 4.8 km/h 16.1 km/h 89% 0 mm
10:14 19.4 °C 17.6 °C 1016.1 hPa WSW 6.4 km/h 11.3 km/h 89% 0 mm
10:19 19.6 °C 17.7 °C 1016.1 hPa SSW 8 km/h 11.3 km/h 89% 0 mm
10:24 19.7 °C 17.8 °C 1016.1 hPa South 4.8 km/h 9.7 km/h 89% 0 mm
10:27 19.8 °C 17.9 °C 1015.8 hPa South 4.8 km/h 14.5 km/h 89% 0 mm
10:32 19.9 °C 17.8 °C 1015.8 hPa South 12.9 km/h 12.9 km/h 88% 0 mm
10:38 19.9 °C 17.9 °C 1015.8 hPa SW 8 km/h 11.3 km/h 88% 0 mm
10:43 19.9 °C 17.9 °C 1015.8 hPa SW 4.8 km/h 9.7 km/h 88% 0 mm
10:48 20.1 °C 18.1 °C 1016.1 hPa South 6.4 km/h 11.3 km/h 88% 0 mm
10:53 20.1 °C 17.9 °C 1016.1 hPa South 11.3 km/h 14.5 km/h 87% 0 mm
10:58 20 °C 17.8 °C 1016.1 hPa SW 4.8 km/h 14.5 km/h 87% 0 mm
11:03 20.1 °C 17.9 °C 1016.1 hPa WSW 8 km/h 11.3 km/h 87% 0 mm
11:08 20.4 °C 18.2 °C 1016.1 hPa SSE 3.2 km/h 16.1 km/h 87% 0 mm
11:13 20.6 °C 18.2 °C 1016.1 hPa SSW 11.3 km/h 14.5 km/h 86% 0 mm
11:18 20.7 °C 18.1 °C 1016.1 hPa South 8 km/h 12.9 km/h 85% 0 mm
11:23 20.7 °C 17.9 °C 1016.1 hPa SW 12.9 km/h 16.1 km/h 84% 0 mm
11:28 20.7 °C 17.7 °C 1016.1 hPa SSW 11.3 km/h 20.9 km/h 83% 0 mm
11:33 21 °C 18 °C 1016.1 hPa SSW 8 km/h 16.1 km/h 83% 0 mm
11:38 21.2 °C 17.8 °C 1016.1 hPa WSW 4.8 km/h 17.7 km/h 81% 0 mm
11:43 21.4 °C 17.8 °C 1016.1 hPa SW 6.4 km/h 19.3 km/h 80% 0 mm
11:48 21.6 °C 17.4 °C 1016.1 hPa SSE 17.7 km/h 20.9 km/h 77% 0 mm
11:53 21.6 °C 17.6 °C 1016.5 hPa SSE 8 km/h 12.9 km/h 78% 0 mm
11:58 21.9 °C 18.2 °C 1016.1 hPa SE 12.9 km/h 12.9 km/h 79% 0 mm
12:03 22.2 °C 18 °C 1016.5 hPa SW 9.7 km/h 17.7 km/h 77% 0 mm
12:08 22.7 °C 18 °C 1016.1 hPa SE 12.9 km/h 20.9 km/h 75% 0 mm
12:13 22.6 °C 17.9 °C 1016.1 hPa WSW 17.7 km/h 17.7 km/h 75% 0 mm
12:18 22.6 °C 18.2 °C 1016.1 hPa South 9.7 km/h 17.7 km/h 76% 0 mm
12:23 22.7 °C 18.4 °C 1016.1 hPa SSE 6.4 km/h 16.1 km/h 77% 0 mm
12:28 22.9 °C 17.6 °C 1016.1 hPa South 9.7 km/h 16.1 km/h 72% 0 mm
12:33 22.6 °C 17.5 °C 1016.1 hPa SSW 4.8 km/h 12.9 km/h 73% 0 mm
12:38 22.8 °C 17.7 °C 1015.8 hPa WSW 6.4 km/h 16.1 km/h 73% 0 mm
12:43 22.9 °C 18.5 °C 1015.8 hPa SSE 12.9 km/h 16.1 km/h 76% 0 mm
12:48 23.1 °C 17.1 °C 1015.8 hPa SSW 11.3 km/h 20.9 km/h 69% 0 mm
12:53 23.3 °C 17.5 °C 1015.8 hPa SE 14.5 km/h 20.9 km/h 70% 0 mm
12:58 23.4 °C 17.2 °C 1015.8 hPa SSW 17.7 km/h 19.3 km/h 68% 0 mm
13:03 23.5 °C 17.7 °C 1015.8 hPa SSE 14.5 km/h 16.1 km/h 70% 0 mm
13:09 24 °C 17.5 °C 1015.8 hPa SSW 8 km/h 14.5 km/h 67% 0 mm
13:14 23.9 °C 17.2 °C 1015.8 hPa SE 17.7 km/h 20.9 km/h 66% 0 mm
13:19 23.9 °C 16.9 °C 1015.8 hPa South 14.5 km/h 22.5 km/h 65% 0 mm
13:24 24.1 °C 16.8 °C 1015.8 hPa SW 12.9 km/h 17.7 km/h 64% 0 mm
13:29 24.3 °C 18 °C 1015.8 hPa SW 6.4 km/h 17.7 km/h 68% 0 mm
13:34 24.3 °C 17.3 °C 1015.5 hPa WSW 6.4 km/h 19.3 km/h 65% 0 mm
13:39 24.6 °C 17.6 °C 1015.5 hPa SSW 9.7 km/h 19.3 km/h 65% 0 mm
13:44 24.6 °C 17.3 °C 1015.5 hPa SSE 14.5 km/h 20.9 km/h 64% 0 mm
13:49 24.6 °C 17.3 °C 1015.5 hPa South 8 km/h 17.7 km/h 64% 0 mm
13:54 24.7 °C 17.4 °C 1015.5 hPa SE 8 km/h 17.7 km/h 64% 0 mm
13:59 24.8 °C 17.1 °C 1015.1 hPa SSW 14.5 km/h 19.3 km/h 62% 0 mm
14:04 24.8 °C 16.3 °C 1015.1 hPa SW 8 km/h 20.9 km/h 59% 0 mm
14:06 24.9 °C 16.7 °C 1015.1 hPa WSW 17.7 km/h 17.7 km/h 60% 0 mm
14:11 25.1 °C 16.5 °C 1015.1 hPa SSW 11.3 km/h 20.9 km/h 59% 0 mm
14:16 25 °C 16.9 °C 1015.1 hPa SSW 8 km/h 17.7 km/h 61% 0 mm
14:17 25.1 °C 17.3 °C 1015.1 hPa SSE 12.9 km/h 17.7 km/h 62% 0 mm
14:22 25.2 °C 16.1 °C 1014.8 hPa SSW 9.7 km/h 20.9 km/h 57% 0 mm
14:23 25.2 °C 16.6 °C 1014.8 hPa South 9.7 km/h 19.3 km/h 59% 0 mm
14:28 25.2 °C 16.1 °C 1014.8 hPa SSE 16.1 km/h 22.5 km/h 57% 0 mm
14:33 25.2 °C 16.4 °C 1014.8 hPa SSE 11.3 km/h 12.9 km/h 58% 0 mm
14:38 25.4 °C 15.8 °C 1014.8 hPa SSE 12.9 km/h 24.1 km/h 55% 0 mm
14:39 25.4 °C 15.8 °C 1014.8 hPa South 9.7 km/h 24.1 km/h 55% 0 mm
14:44 25.4 °C 16.8 °C 1014.8 hPa SW 11.3 km/h 16.1 km/h 59% 0 mm
14:45 25.4 °C 16.8 °C 1014.8 hPa SSW 8 km/h 16.1 km/h 59% 0 mm
14:50 25.7 °C 16.8 °C 1014.4 hPa SSW 6.4 km/h 16.1 km/h 58% 0 mm
14:55 26 °C 15.7 °C 1014.8 hPa SSW 11.3 km/h 16.1 km/h 53% 0 mm
15:00 26.1 °C 15.7 °C 1014.4 hPa South 3.2 km/h 14.5 km/h 53% 0 mm
15:05 25.9 °C 15.3 °C 1014.4 hPa SSW 9.7 km/h 24.1 km/h 52% 0 mm
15:10 26.1 °C 16.6 °C 1014.4 hPa SSW 14.5 km/h 14.5 km/h 56% 0 mm
15:16 26.2 °C 16.5 °C 1014.4 hPa SSW 19.3 km/h 19.3 km/h 55% 0 mm
15:21 26.1 °C 15.8 °C 1014.1 hPa SW 11.3 km/h 24.1 km/h 53% 0 mm
15:22 26.1 °C 15.8 °C 1014.1 hPa WSW 19.3 km/h 22.5 km/h 53% 0 mm
15:27 26.2 °C 15.6 °C 1014.1 hPa SSE 11.3 km/h 14.5 km/h 52% 0 mm
15:32 26.3 °C 15.7 °C 1014.1 hPa SE 12.9 km/h 19.3 km/h 52% 0 mm
15:34 26.3 °C 16.8 °C 1014.1 hPa SW 6.4 km/h 19.3 km/h 56% 0 mm
15:39 26.4 °C 15.8 °C 1014.1 hPa SW 11.3 km/h 19.3 km/h 52% 0 mm
15:42 26.4 °C 15.5 °C 1014.1 hPa SW 12.9 km/h 22.5 km/h 51% 0 mm
15:47 26.6 °C 16.2 °C 1013.8 hPa SSW 14.5 km/h 19.3 km/h 53% 0 mm
15:52 26.8 °C 17 °C 1013.8 hPa SSW 9.7 km/h 16.1 km/h 55% 0 mm
15:53 26.8 °C 15.5 °C 1014.1 hPa SW 19.3 km/h 19.3 km/h 50% 0 mm
15:58 26.7 °C 15.8 °C 1013.8 hPa SSW 14.5 km/h 17.7 km/h 51% 0 mm
16:03 26.8 °C 16.4 °C 1013.8 hPa South 8 km/h 20.9 km/h 53% 0 mm
16:05 26.8 °C 16.4 °C 1013.8 hPa SE 8 km/h 20.9 km/h 53% 0 mm
16:10 26.9 °C 16.8 °C 1013.8 hPa SW 19.3 km/h 19.3 km/h 54% 0 mm
16:15 26.8 °C 15.2 °C 1013.8 hPa SSE 8 km/h 19.3 km/h 49% 0 mm
16:20 26.9 °C 16.6 °C 1013.8 hPa South 12.9 km/h 20.9 km/h 53% 0 mm
16:26 27 °C 15.7 °C 1013.4 hPa SW 19.3 km/h 20.9 km/h 50% 0 mm
16:31 27.1 °C 15.5 °C 1013.4 hPa SSE 17.7 km/h 22.5 km/h 49% 0 mm
16:36 27.1 °C 15.1 °C 1013.4 hPa SSE 16.1 km/h 22.5 km/h 48% 0 mm
16:41 27.1 °C 15.1 °C 1013.4 hPa SSW 11.3 km/h 24.1 km/h 48% 0 mm
16:46 27.2 °C 15.9 °C 1013.1 hPa SW 17.7 km/h 17.7 km/h 50% 0 mm
16:47 27.2 °C 15.9 °C 1013.1 hPa SSW 14.5 km/h 17.7 km/h 50% 0 mm
16:52 27.3 °C 15.7 °C 1013.1 hPa SSW 6.4 km/h 12.9 km/h 49% 0 mm
16:57 27.3 °C 15.4 °C 1013.4 hPa SSW 14.5 km/h 20.9 km/h 48% 0 mm
17:02 27.3 °C 15.4 °C 1013.4 hPa SE 11.3 km/h 16.1 km/h 48% 0 mm
17:07 27.4 °C 15.8 °C 1013.4 hPa SW 6.4 km/h 19.3 km/h 49% 0 mm
17:12 27.4 °C 14.8 °C 1013.4 hPa SW 14.5 km/h 20.9 km/h 46% 0 mm
17:17 27.5 °C 15.2 °C 1013.4 hPa SE 14.5 km/h 14.5 km/h 47% 0 mm
17:22 27.5 °C 14.9 °C 1013.4 hPa South 6.4 km/h 19.3 km/h 46% 0 mm
17:27 27.4 °C 15.4 °C 1013.4 hPa SSE 8 km/h 19.3 km/h 48% 0 mm
17:32 27.6 °C 15.2 °C 1013.1 hPa SSW 9.7 km/h 22.5 km/h 47% 0 mm
17:33 27.6 °C 15.2 °C 1013.1 hPa SW 9.7 km/h 22.5 km/h 47% 0 mm
17:38 27.6 °C 15.6 °C 1013.1 hPa SE 9.7 km/h 20.9 km/h 48% 0 mm
17:43 27.4 °C 15.8 °C 1013.4 hPa SW 6.4 km/h 17.7 km/h 49% 0 mm
17:48 27.5 °C 15.2 °C 1013.4 hPa SSE 11.3 km/h 17.7 km/h 47% 0 mm
17:53 27.4 °C 15.4 °C 1013.4 hPa SSW 9.7 km/h 16.1 km/h 48% 0 mm
17:58 27.5 °C 16.2 °C 1013.1 hPa SE 11.3 km/h 16.1 km/h 50% 0 mm
18:03 27.4 °C 15.4 °C 1013.1 hPa SSW 8 km/h 19.3 km/h 48% 0 mm
18:09 27.5 °C 15.8 °C 1013.4 hPa SSW 6.4 km/h 12.9 km/h 49% 0 mm
18:14 27.4 °C 15.8 °C 1013.4 hPa SW 17.7 km/h 17.7 km/h 49% 0 mm
18:19 27.5 °C 15.8 °C 1013.1 hPa South 6.4 km/h 12.9 km/h 49% 0 mm
18:24 27.5 °C 16.2 °C 1013.1 hPa SSW 8 km/h 16.1 km/h 50% 0 mm
18:25 27.5 °C 16.2 °C 1013.1 hPa SW 6.4 km/h 16.1 km/h 50% 0 mm
18:30 27.4 °C 15.4 °C 1013.4 hPa SW 11.3 km/h 19.3 km/h 48% 0 mm
18:35 27.3 °C 15.4 °C 1013.4 hPa SE 11.3 km/h 17.7 km/h 48% 0 mm
18:40 27.2 °C 15.2 °C 1013.4 hPa SW 12.9 km/h 19.3 km/h 48% 0 mm
18:41 27.2 °C 15.2 °C 1013.4 hPa SSW 11.3 km/h 19.3 km/h 48% 0 mm
18:46 27.2 °C 15.2 °C 1013.4 hPa SSE 16.1 km/h 22.5 km/h 48% 0 mm
18:51 27.1 °C 15.4 °C 1013.4 hPa South 12.9 km/h 17.7 km/h 49% 0 mm
18:56 27 °C 15.4 °C 1013.1 hPa SSE 4.8 km/h 24.1 km/h 49% 0 mm
19:01 26.9 °C 15.9 °C 1013.4 hPa SSE 20.9 km/h 20.9 km/h 51% 0 mm
19:06 26.8 °C 15.6 °C 1013.4 hPa South 12.9 km/h 14.5 km/h 50% 0 mm
19:11 26.8 °C 16.4 °C 1013.1 hPa SSW 8 km/h 11.3 km/h 53% 0 mm
19:16 26.7 °C 16 °C 1013.4 hPa SSW 8 km/h 11.3 km/h 52% 0 mm
19:21 26.5 °C 16.2 °C 1013.1 hPa SW 9.7 km/h 17.7 km/h 53% 0 mm
19:26 26.4 °C 16.4 °C 1013.1 hPa South 3.2 km/h 11.3 km/h 54% 0 mm
19:28 26.4 °C 16.4 °C 1013.1 hPa SSW 12.9 km/h 14.5 km/h 54% 0 mm
19:33 26.3 °C 16 °C 1013.1 hPa SW 14.5 km/h 14.5 km/h 53% 0 mm
19:34 26.3 °C 16 °C 1013.1 hPa SSW 9.7 km/h 14.5 km/h 53% 0 mm
19:39 26.2 °C 15.8 °C 1013.1 hPa SSE 6.4 km/h 14.5 km/h 53% 0 mm
19:44 26.1 °C 16.1 °C 1013.1 hPa SSW 8 km/h 9.7 km/h 54% 0 mm
19:45 26.1 °C 16.1 °C 1013.1 hPa SW 9.7 km/h 9.7 km/h 54% 0 mm
19:50 25.9 °C 16.2 °C 1013.1 hPa SSW 4.8 km/h 9.7 km/h 55% 0 mm
19:55 25.8 °C 16.1 °C 1013.1 hPa South 8 km/h 8 km/h 55% 0 mm
20:00 25.6 °C 16.2 °C 1013.1 hPa SSE 4.8 km/h 11.3 km/h 56% 0 mm
20:05 25.4 °C 16 °C 1013.1 hPa South 9.7 km/h 17.7 km/h 56% 0 mm
20:10 25.2 °C 16.1 °C 1013.1 hPa South 4.8 km/h 8 km/h 57% 0 mm
20:11 25.1 °C 16 °C 1013.1 hPa South 4.8 km/h 8 km/h 57% 0 mm
20:16 24.9 °C 16.1 °C 1013.1 hPa SSE 4.8 km/h 9.7 km/h 58% 0 mm
20:21 24.6 °C 16.3 °C 1013.1 hPa SSW 6.4 km/h 12.9 km/h 60% 0 mm
20:26 24.3 °C 16.6 °C 1013.1 hPa South 6.4 km/h 11.3 km/h 62% 0 mm
20:32 23.9 °C 16.5 °C 1013.1 hPa South 3.2 km/h 11.3 km/h 63% 0 mm
20:37 23.7 °C 16.5 °C 1013.4 hPa SSW 4.8 km/h 8 km/h 64% 0 mm
20:39 23.6 °C 16.4 °C 1013.4 hPa SSW 3.2 km/h 8 km/h 64% 0 mm
20:44 23.4 °C 16.5 °C 1013.4 hPa SSE 6.4 km/h 9.7 km/h 65% 0 mm
20:45 23.4 °C 16.5 °C 1013.4 hPa SE 3.2 km/h 9.7 km/h 65% 0 mm
20:50 23.2 °C 16.5 °C 1013.4 hPa SSE 6.4 km/h 6.4 km/h 66% 0 mm
20:55 22.9 °C 16.4 °C 1013.4 hPa SSW 3.2 km/h 4.8 km/h 67% 0 mm
21:00 22.7 °C 16.3 °C 1013.4 hPa SSW 4.8 km/h 6.4 km/h 67% 0 mm
21:05 22.6 °C 16.3 °C 1013.8 hPa SSE 1.6 km/h 4.8 km/h 68% 0 mm
21:10 22.5 °C 16.3 °C 1013.8 hPa SSE 6.4 km/h 6.4 km/h 68% 0 mm
21:15 22.4 °C 16.4 °C 1013.8 hPa SSE 6.4 km/h 8 km/h 69% 0 mm
21:21 22.2 °C 16.3 °C 1014.1 hPa South 3.2 km/h 8 km/h 69% 0 mm
21:26 22.1 °C 16.4 °C 1014.1 hPa SE 6.4 km/h 6.4 km/h 70% 0 mm
21:31 22 °C 16.3 °C 1014.1 hPa SSW 1.6 km/h 4.8 km/h 70% 0 mm
21:32 22 °C 16.3 °C 1014.1 hPa SE 1.6 km/h 4.8 km/h 70% 0 mm
21:37 21.8 °C 16.3 °C 1014.1 hPa SSE 1.6 km/h 3.2 km/h 71% 0 mm
21:42 21.5 °C 16.2 °C 1014.4 hPa SSE 1.6 km/h 3.2 km/h 72% 0 mm
21:47 21.3 °C 16.2 °C 1014.4 hPa SSE 1.6 km/h 1.6 km/h 73% 0 mm
21:52 21.2 °C 16.1 °C 1014.4 hPa Calm   3.2 km/h 73% 0 mm
21:53 21.2 °C 16.3 °C 1014.4 hPa Calm   3.2 km/h 74% 0 mm
21:58 21 °C 16.2 °C 1014.8 hPa Calm     74% 0 mm
22:03 20.8 °C 16.2 °C 1014.8 hPa Calm     75% 0 mm
22:08 20.7 °C 16.1 °C 1014.8 hPa Calm     75% 0 mm
22:13 20.5 °C 16.1 °C 1014.8 hPa Calm     76% 0 mm
22:18 20.4 °C 16 °C 1015.1 hPa Calm   1.6 km/h 76% 0 mm
22:23 20.4 °C 16.2 °C 1015.1 hPa SE 1.6 km/h 1.6 km/h 77% 0 mm
22:24 20.4 °C 16.2 °C 1015.1 hPa SE 1.6 km/h 1.6 km/h 77% 0 mm
22:29 20.3 °C 16.1 °C 1015.1 hPa SE 1.6 km/h 1.6 km/h 77% 0 mm
22:34 20.2 °C 16.1 °C 1015.5 hPa Calm   1.6 km/h 77% 0 mm
22:36 20.2 °C 16.2 °C 1015.5 hPa Calm     78% 0 mm
22:41 20.2 °C 16.2 °C 1015.5 hPa Calm     78% 0 mm
22:46 20.2 °C 16.2 °C 1015.8 hPa Calm     78% 0 mm
22:47 20.2 °C 16.2 °C 1015.8 hPa Calm     78% 0 mm
22:52 20.1 °C 16.1 °C 1015.8 hPa Calm     78% 0 mm
22:57 19.9 °C 16.2 °C 1015.8 hPa Calm   1.6 km/h 79% 0 mm
23:02 19.8 °C 16.3 °C 1015.8 hPa East 1.6 km/h 1.6 km/h 80% 0 mm
23:07 20 °C 16.4 °C 1016.1 hPa ENE 1.6 km/h 3.2 km/h 80% 0 mm
23:12 19.9 °C 16.4 °C 1016.1 hPa ENE 1.6 km/h 1.6 km/h 80% 0 mm
23:17 19.9 °C 16.3 °C 1016.1 hPa ENE 1.6 km/h 1.6 km/h 80% 0 mm
23:22 19.7 °C 16.2 °C 1016.1 hPa Calm     80% 0 mm
23:27 19.6 °C 16 °C 1016.1 hPa Calm     80% 0 mm
23:33 19.3 °C 15.7 °C 1016.1 hPa Calm     80% 0 mm
23:34 19.2 °C 15.8 °C 1016.1 hPa Calm     81% 0 mm
23:39 18.9 °C 15.9 °C 1016.5 hPa Calm     83% 0 mm
23:41 18.8 °C 15.8 °C 1016.5 hPa Calm     83% 0 mm
23:46 18.7 °C 15.9 °C 1016.5 hPa Calm     84% 0 mm
23:51 18.7 °C 15.9 °C 1016.5 hPa Calm     84% 0 mm
23:52 18.8 °C 16 °C 1016.5 hPa ENE 1.6 km/h 1.6 km/h 84% 0 mm
23:57 19 °C 16.2 °C 1016.5 hPa Calm   1.6 km/h 84% 0 mm
Compliments of Weather Underground